Time;durP1;ratioP1;P1;durP2;ratioP2;P2;SDS_P1;SDS_P2;PMS_P1;PMS_P2;Temp;Humidity;BMP_temperature;BMP_pressure;BME280_temperature;BME280_humidity;BME280_pressure;Samples;Min_cycle;Max_cycle;Signal;HPM_P1;HPM_P2
2022/08/23 00:01:07;;;;;;;38.38;29.45;;;;;;;;;;4914481;29;20044;-80
2022/08/23 00:03:32;;;;;;;40.90;27.77;;;;;;;;;;4913772;29;20122;-80
2022/08/23 00:05:58;;;;;;;37.50;28.70;;;;;;;;;;4895361;29;20123;-81
2022/08/23 00:08:23;;;;;;;54.10;32.13;;;;;;;;;;4903112;29;20032;-81
2022/08/23 00:10:49;;;;;;;43.55;31.40;;;;;;;;;;4866629;29;20042;-81
2022/08/23 00:13:14;;;;;;;43.58;29.77;;;;;;;;;;4898255;29;20039;-81
2022/08/23 00:15:40;;;;;;;46.47;33.47;;;;;;;;;;4869903;29;20408;-81
2022/08/23 00:18:05;;;;;;;49.03;33.83;;;;;;;;;;4910134;29;20515;-81
2022/08/23 00:20:30;;;;;;;40.05;32.88;;;;;;;;;;4914287;29;20040;-81
2022/08/23 00:22:56;;;;;;;52.22;34.47;;;;;;;;;;4890649;29;20032;-81
2022/08/23 00:25:21;;;;;;;48.13;36.00;;;;;;;;;;4892015;29;20044;-81
2022/08/23 00:27:46;;;;;;;53.92;35.28;;;;;;;;;;4895204;29;20506;-80
2022/08/23 00:30:12;;;;;;;50.38;34.47;;;;;;;;;;4929854;29;20063;-81
2022/08/23 00:32:38;;;;;;;49.38;35.35;;;;;;;;;;4866839;29;20039;-81
2022/08/23 00:35:04;;;;;;;46.42;34.63;;;;;;;;;;4914004;29;20444;-81
2022/08/23 00:37:32;;;;;;;46.97;33.38;;;;;;;;;;4882544;29;20031;-81
2022/08/23 00:39:58;;;;;;;47.88;34.28;;;;;;;;;;4908624;29;20028;-81
2022/08/23 00:48:28;;;;;;;44.33;33.08;;;;;;;;;;4903322;29;20126;-80
2022/08/23 00:50:58;;;;;;;50.78;33.55;;;;;;;;;;4870021;29;20027;-80
2022/08/23 00:53:35;;;;;;;48.40;35.00;;;;;;;;;;4900080;29;20117;-81
2022/08/23 00:56:02;;;;;;;51.10;35.22;;;;;;;;;;4907093;29;20047;-81
2022/08/23 00:58:27;;;;;;;52.90;37.75;;;;;;;;;;4916796;29;20042;-81
2022/08/23 01:00:53;;;;;;;55.50;37.72;;;;;;;;;;4869765;29;20118;-81
2022/08/23 01:03:19;;;;;;;53.45;39.25;;;;;;;;;;4929632;29;20047;-80
2022/08/23 01:06:11;;;;;;;52.25;38.83;;;;;;;;;;4878047;29;20511;-80
2022/08/23 01:08:36;;;;;;;57.70;39.47;;;;;;;;;;4889472;29;20092;-81
2022/08/23 01:11:06;;;;;;;58.08;39.53;;;;;;;;;;4868782;29;20027;-81
2022/08/23 01:13:42;;;;;;;62.90;40.33;;;;;;;;;;4900320;29;20032;-80
2022/08/23 01:16:15;;;;;;;59.08;38.70;;;;;;;;;;4917284;29;20114;-80
2022/08/23 01:18:43;;;;;;;;;;;;;;;;;;4913073;29;20033;-81
2022/08/23 01:21:28;;;;;;;57.45;36.75;;;;;;;;;;4925525;29;20013;-81
2022/08/23 01:23:55;;;;;;;56.60;40.35;;;;;;;;;;4916240;29;20040;-81
2022/08/23 01:26:21;;;;;;;62.50;42.83;;;;;;;;;;4905222;29;20024;-81
2022/08/23 01:28:46;;;;;;;55.47;40.83;;;;;;;;;;4906142;29;20391;-80
2022/08/23 01:31:12;;;;;;;64.18;42.08;;;;;;;;;;4943145;29;20050;-80
2022/08/23 01:33:38;;;;;;;68.32;43.95;;;;;;;;;;4935369;29;20035;-80
2022/08/23 01:36:04;;;;;;;64.68;43.15;;;;;;;;;;4929665;29;20066;-80
2022/08/23 01:38:29;;;;;;;66.85;43.97;;;;;;;;;;4915075;29;20039;-80
2022/08/23 01:40:55;;;;;;;60.58;40.83;;;;;;;;;;4918653;29;20040;-80
2022/08/23 01:43:20;;;;;;;66.95;41.85;;;;;;;;;;4896081;29;20051;-81
2022/08/23 01:45:46;;;;;;;65.75;42.03;;;;;;;;;;4922501;29;20128;-80
2022/08/23 01:48:15;;;;;;;60.47;41.15;;;;;;;;;;4917480;29;20111;-80
2022/08/23 01:50:40;;;;;;;71.78;42.17;;;;;;;;;;4906443;29;20035;-81
2022/08/23 01:53:06;;;;;;;69.97;42.33;;;;;;;;;;4928983;29;20024;-80
2022/08/23 01:55:32;;;;;;;56.25;38.70;;;;;;;;;;4934697;29;20062;-80
2022/08/23 01:57:59;;;;;;;61.50;39.33;;;;;;;;;;4909511;29;20050;-80
2022/08/23 02:00:29;;;;;;;56.40;35.67;;;;;;;;;;4893062;29;20075;-80
2022/08/23 02:02:56;;;;;;;59.13;37.13;;;;;;;;;;4937676;29;20032;-79
2022/08/23 02:05:21;;;;;;;56.88;38.85;;;;;;;;;;4887966;29;20044;-80
2022/08/23 02:07:46;;;;;;;62.30;41.70;;;;;;;;;;4904131;29;20032;-81
2022/08/23 02:10:12;;;;;;;64.28;38.30;;;;;;;;;;4905109;29;20265;-80
2022/08/23 02:12:38;;;;;;;55.67;39.25;;;;;;;;;;4936070;29;20028;-80
2022/08/23 02:15:03;;;;;;;58.25;37.55;;;;;;;;;;4889291;29;21595;-81
2022/08/23 02:17:29;;;;;;;59.28;38.50;;;;;;;;;;4890407;29;20027;-82
2022/08/23 02:19:54;;;;;;;64.45;39.42;;;;;;;;;;4927950;29;20444;-81
2022/08/23 02:22:20;;;;;;;59.10;38.33;;;;;;;;;;4904309;29;20126;-82
2022/08/23 02:24:45;;;;;;;49.65;34.08;;;;;;;;;;4909618;29;20418;-82
2022/08/23 02:27:13;;;;;;;61.03;39.00;;;;;;;;;;4925608;29;20028;-81
2022/08/23 02:29:38;;;;;;;56.50;37.20;;;;;;;;;;4897556;29;20043;-81
2022/08/23 02:32:04;;;;;;;59.70;37.63;;;;;;;;;;4898167;29;20109;-81
2022/08/23 02:34:30;;;;;;;63.75;38.45;;;;;;;;;;4928767;29;20035;-82
2022/08/23 02:36:56;;;;;;;54.35;36.38;;;;;;;;;;4909845;29;20074;-82
2022/08/23 02:39:21;;;;;;;61.38;38.35;;;;;;;;;;4929005;29;20023;-82
2022/08/23 02:41:47;;;;;;;69.45;40.05;;;;;;;;;;4898797;29;20035;-81
2022/08/23 02:44:12;;;;;;;55.92;36.05;;;;;;;;;;4892520;29;20126;-81
2022/08/23 02:46:38;;;;;;;62.28;37.80;;;;;;;;;;4897833;29;20051;-81
2022/08/23 02:49:04;;;;;;;68.22;39.88;;;;;;;;;;4913365;29;20032;-81
2022/08/23 02:51:29;;;;;;;60.47;40.28;;;;;;;;;;4900107;29;20031;-82
2022/08/23 02:53:55;;;;;;;59.17;38.03;;;;;;;;;;4916037;29;20110;-82
2022/08/23 02:56:20;;;;;;;58.83;39.53;;;;;;;;;;4899204;29;20107;-82
2022/08/23 02:58:46;;;;;;;64.32;37.72;;;;;;;;;;4865530;29;20044;-82
2022/08/23 03:01:19;;;;;;;62.05;41.15;;;;;;;;;;4881322;29;20111;-82
2022/08/23 03:03:44;;;;;;;56.80;36.45;;;;;;;;;;4921760;29;20050;-82
2022/08/23 03:06:10;;;;;;;56.70;37.80;;;;;;;;;;4924370;29;20024;-82
2022/08/23 03:08:36;;;;;;;51.05;36.20;;;;;;;;;;4941817;29;20052;-82
2022/08/23 03:11:01;;;;;;;46.83;32.63;;;;;;;;;;4909204;29;20040;-82
2022/08/23 03:13:30;;;;;;;54.38;35.22;;;;;;;;;;4892979;29;20507;-82
2022/08/23 03:15:55;;;;;;;55.47;36.85;;;;;;;;;;4909230;29;20043;-82
2022/08/23 03:18:20;;;;;;;62.63;37.80;;;;;;;;;;4925103;29;20070;-83
2022/08/23 03:20:47;;;;;;;56.47;37.40;;;;;;;;;;4921418;29;20031;-82
2022/08/23 03:23:12;;;;;;;57.97;37.22;;;;;;;;;;4875618;29;20029;-82
2022/08/23 03:25:38;;;;;;;57.92;40.60;;;;;;;;;;4890890;29;20109;-83
2022/08/23 03:28:05;;;;;;;62.63;40.75;;;;;;;;;;4924477;29;20035;-82
2022/08/23 03:30:31;;;;;;;63.60;41.97;;;;;;;;;;4911243;29;20047;-83
2022/08/23 03:32:59;;;;;;;66.28;43.03;;;;;;;;;;4921801;29;20040;-83
2022/08/23 03:35:25;;;;;;;60.47;39.95;;;;;;;;;;4921310;29;20028;-83
2022/08/23 03:37:52;;;;;;;63.25;39.85;;;;;;;;;;4914721;29;20051;-83
2022/08/23 03:40:17;;;;;;;59.17;37.67;;;;;;;;;;4909953;29;20059;-83
2022/08/23 03:42:43;;;;;;;56.85;36.45;;;;;;;;;;4919192;29;20068;-83
2022/08/23 03:45:09;;;;;;;56.90;34.58;;;;;;;;;;4919712;29;20051;-83
2022/08/23 03:47:34;;;;;;;54.85;35.03;;;;;;;;;;4919662;29;20055;-82
2022/08/23 03:50:00;;;;;;;52.85;35.28;;;;;;;;;;4881776;29;20159;-82
2022/08/23 03:52:25;;;;;;;51.70;35.83;;;;;;;;;;4867887;29;20120;-82
2022/08/23 03:54:51;;;;;;;52.67;34.90;;;;;;;;;;4898708;29;20036;-82
2022/08/23 03:57:16;;;;;;;49.90;35.45;;;;;;;;;;4903885;29;20519;-82
2022/08/23 03:59:41;;;;;;;51.88;36.95;;;;;;;;;;4898979;29;20081;-83
2022/08/23 04:02:07;;;;;;;60.25;36.90;;;;;;;;;;4909693;29;20040;-82
2022/08/23 04:04:32;;;;;;;61.97;36.25;;;;;;;;;;4915855;29;20024;-83
2022/08/23 04:06:58;;;;;;;54.13;36.90;;;;;;;;;;4915908;29;20032;-83
2022/08/23 04:09:23;;;;;;;53.05;37.22;;;;;;;;;;4866590;29;20366;-83
2022/08/23 04:11:50;;;;;;;58.78;37.28;;;;;;;;;;4917608;29;20085;-83
2022/08/23 04:14:15;;;;;;;62.35;37.42;;;;;;;;;;4898832;29;20114;-81
2022/08/23 04:16:40;;;;;;;51.63;35.42;;;;;;;;;;4899844;29;20104;-82
2022/08/23 04:19:06;;;;;;;59.92;38.00;;;;;;;;;;4887605;29;20143;-81
2022/08/23 04:21:32;;;;;;;58.20;36.92;;;;;;;;;;4913912;29;20492;-82
2022/08/23 04:23:57;;;;;;;59.90;37.80;;;;;;;;;;4884770;29;20060;-82
2022/08/23 04:26:23;;;;;;;58.03;39.47;;;;;;;;;;4915135;29;20519;-82
2022/08/23 04:28:48;;;;;;;57.30;38.50;;;;;;;;;;4898931;29;20040;-82
2022/08/23 04:31:13;;;;;;;57.80;36.10;;;;;;;;;;4882016;29;20043;-82
2022/08/23 04:33:39;;;;;;;50.45;35.20;;;;;;;;;;4881659;29;20028;-82
2022/08/23 04:36:04;;;;;;;53.25;36.38;;;;;;;;;;4926699;29;20079;-82
2022/08/23 04:38:30;;;;;;;54.45;35.65;;;;;;;;;;4882506;29;20170;-82
2022/08/23 04:43:39;;;;;;;60.25;39.40;;;;;;;;;;4889973;29;20050;-81
2022/08/23 04:46:04;;;;;;;69.22;42.45;;;;;;;;;;4933556;29;20063;-82
2022/08/23 04:48:30;;;;;;;73.35;46.47;;;;;;;;;;4901248;29;20110;-82
2022/08/23 04:50:56;;;;;;;64.05;42.50;;;;;;;;;;4886697;29;20027;-82
2022/08/23 04:53:22;;;;;;;65.40;44.05;;;;;;;;;;4885977;29;20031;-82
2022/08/23 04:55:48;;;;;;;76.05;45.15;;;;;;;;;;4870506;29;20705;-82
2022/08/23 04:58:13;;;;;;;73.85;46.65;;;;;;;;;;4901103;29;20051;-82
2022/08/23 05:00:38;;;;;;;74.07;48.85;;;;;;;;;;4932984;29;20055;-82
2022/08/23 05:03:04;;;;;;;84.32;51.20;;;;;;;;;;4931728;29;20361;-82
2022/08/23 05:05:29;;;;;;;85.07;51.83;;;;;;;;;;4915958;29;20061;-82
2022/08/23 05:07:55;;;;;;;81.43;52.80;;;;;;;;;;4913279;29;20042;-82
2022/08/23 05:10:20;;;;;;;84.38;53.97;;;;;;;;;;4935979;29;20387;-82
2022/08/23 05:12:46;;;;;;;78.15;54.50;;;;;;;;;;4902135;29;20039;-81
2022/08/23 05:15:12;;;;;;;83.88;54.08;;;;;;;;;;4889656;29;20032;-82
2022/08/23 05:17:37;;;;;;;84.78;54.53;;;;;;;;;;4911531;29;20396;-83
2022/08/23 05:20:04;;;;;;;83.50;53.03;;;;;;;;;;4919782;29;20058;-84
2022/08/23 05:22:34;;;;;;;76.10;52.10;;;;;;;;;;4906995;29;20488;-84
2022/08/23 05:24:59;;;;;;;75.00;53.10;;;;;;;;;;4909625;29;20042;-82
2022/08/23 05:27:25;;;;;;;71.05;48.45;;;;;;;;;;4925496;29;20031;-82
2022/08/23 05:29:53;;;;;;;66.22;50.13;;;;;;;;;;4940079;29;20492;-83
2022/08/23 05:32:19;;;;;;;66.85;50.30;;;;;;;;;;4903638;29;20119;-82
2022/08/23 05:34:44;;;;;;;62.83;49.05;;;;;;;;;;4920844;29;20063;-82
2022/08/23 05:37:10;;;;;;;60.65;49.25;;;;;;;;;;4917372;29;20099;-81
2022/08/23 05:39:35;;;;;;;57.15;45.53;;;;;;;;;;4889473;29;20453;-82
2022/08/23 05:42:00;;;;;;;50.60;42.80;;;;;;;;;;4891853;29;20040;-83
2022/08/23 05:44:26;;;;;;;54.25;43.42;;;;;;;;;;4939733;29;20062;-82
2022/08/23 05:46:51;;;;;;;49.85;40.13;;;;;;;;;;4941359;29;20110;-83
2022/08/23 05:49:17;;;;;;;45.20;38.67;;;;;;;;;;4938507;29;20064;-83
2022/08/23 05:51:42;;;;;;;51.08;36.42;;;;;;;;;;4899005;29;20031;-82
2022/08/23 05:54:08;;;;;;;38.55;34.47;;;;;;;;;;4904287;29;20040;-83
2022/08/23 05:56:41;;;;;;;35.72;30.52;;;;;;;;;;4908529;29;20035;-83
2022/08/23 05:59:08;;;;;;;38.28;30.27;;;;;;;;;;4940965;29;20047;-82
2022/08/23 06:01:33;;;;;;;33.70;28.98;;;;;;;;;;4911954;29;20035;-83
2022/08/23 06:03:59;;;;;;;30.45;27.27;;;;;;;;;;4917525;29;20035;-81
2022/08/23 06:06:25;;;;;;;28.50;25.55;;;;;;;;;;4949558;29;20027;-81
2022/08/23 06:08:51;;;;;;;26.40;23.33;;;;;;;;;;4946187;29;20032;-82
2022/08/23 06:11:27;;;;;;;31.95;22.13;;;;;;;;;;4919794;29;20031;-83
2022/08/23 06:13:56;;;;;;;20.65;18.58;;;;;;;;;;4909822;29;20100;-82
2022/08/23 06:16:33;;;;;;;21.15;19.13;;;;;;;;;;4931441;29;20030;-83
2022/08/23 06:19:01;;;;;;;23.73;18.38;;;;;;;;;;4944913;29;20035;-83
2022/08/23 06:21:26;;;;;;;21.20;17.63;;;;;;;;;;4941973;29;20126;-83
2022/08/23 06:23:52;;;;;;;21.55;15.90;;;;;;;;;;4920782;29;20106;-82
2022/08/23 06:26:22;;;;;;;21.25;17.02;;;;;;;;;;4929256;29;20035;-82
2022/08/23 06:28:49;;;;;;;18.38;15.93;;;;;;;;;;4919298;29;20043;-82
2022/08/23 06:31:43;;;;;;;19.58;15.35;;;;;;;;;;4924387;29;20031;-81
2022/08/23 06:34:00;;;;;;;17.88;14.82;;;;;;;;;;4927525;29;20028;-84
2022/08/23 06:36:27;;;;;;;19.10;14.50;;;;;;;;;;4938697;29;20096;-82
2022/08/23 06:38:58;;;;;;;17.65;13.07;;;;;;;;;;4947826;29;20044;-81
2022/08/23 06:41:23;;;;;;;18.67;12.75;;;;;;;;;;4952660;29;20048;-82
2022/08/23 06:43:49;;;;;;;16.95;12.77;;;;;;;;;;4961510;29;20083;-82
2022/08/23 06:46:23;;;;;;;16.15;13.10;;;;;;;;;;4922806;29;20030;-82
2022/08/23 06:48:48;;;;;;;14.77;13.38;;;;;;;;;;4937541;29;20096;-82
2022/08/23 06:51:42;;;;;;;19.92;13.13;;;;;;;;;;4909712;29;20054;-82
2022/08/23 06:54:08;;;;;;;16.67;11.88;;;;;;;;;;4936427;29;20055;-83
2022/08/23 06:56:35;;;;;;;13.63;12.23;;;;;;;;;;4919751;29;20024;-82
2022/08/23 06:59:05;;;;;;;16.90;12.05;;;;;;;;;;4921318;29;20044;-81
2022/08/23 07:01:44;;;;;;;14.35;11.77;;;;;;;;;;4905921;29;20025;-81
2022/08/23 07:04:14;;;;;;;16.98;12.88;;;;;;;;;;4947727;28;20035;-82
2022/08/23 07:06:39;;;;;;;15.07;11.70;;;;;;;;;;4907621;29;20043;-82
2022/08/23 07:09:05;;;;;;;13.73;10.55;;;;;;;;;;4892097;29;20127;-80
2022/08/23 07:11:31;;;;;;;19.42;10.77;;;;;;;;;;4907107;29;20043;-81
2022/08/23 07:14:03;;;;;;;14.63;10.80;;;;;;;;;;4920591;29;20044;-81
2022/08/23 07:16:38;;;;;;;12.82;9.38;;;;;;;;;;4920900;29;20032;-80
2022/08/23 07:19:07;;;;;;;11.15;9.02;;;;;;;;;;4922924;29;20292;-82
2022/08/23 07:21:35;;;;;;;14.82;9.52;;;;;;;;;;4922359;29;20032;-81
2022/08/23 07:24:01;;;;;;;12.00;9.75;;;;;;;;;;4906112;29;20135;-82
2022/08/23 07:26:27;;;;;;;13.60;9.68;;;;;;;;;;4905095;29;20251;-82
2022/08/23 07:28:56;;;;;;;14.23;9.60;;;;;;;;;;4888021;29;20080;-82
2022/08/23 07:31:27;;;;;;;11.18;9.00;;;;;;;;;;4923516;29;20052;-81
2022/08/23 07:33:59;;;;;;;12.20;8.38;;;;;;;;;;4905497;29;20027;-84
2022/08/23 07:36:28;;;;;;;14.90;8.97;;;;;;;;;;4878190;29;20067;-85
2022/08/23 07:38:53;;;;;;;12.25;9.23;;;;;;;;;;4895330;29;20032;-85
2022/08/23 07:41:22;;;;;;;12.18;9.20;;;;;;;;;;4878316;29;20036;-84
2022/08/23 07:43:48;;;;;;;16.00;9.07;;;;;;;;;;4888166;29;20059;-85
2022/08/23 07:46:13;;;;;;;11.80;8.82;;;;;;;;;;4913322;29;20122;-85
2022/08/23 07:48:39;;;;;;;11.63;9.00;;;;;;;;;;4928239;29;20031;-86
2022/08/23 07:51:06;;;;;;;13.48;8.30;;;;;;;;;;4913402;29;20436;-85
2022/08/23 07:53:32;;;;;;;13.27;8.43;;;;;;;;;;4912118;29;20098;-86
2022/08/23 07:55:57;;;;;;;12.23;7.68;;;;;;;;;;4895988;29;20460;-84
2022/08/23 07:58:23;;;;;;;14.23;7.90;;;;;;;;;;4930508;29;20092;-85
2022/08/23 08:00:50;;;;;;;13.07;8.32;;;;;;;;;;4916037;29;20031;-86
2022/08/23 08:03:16;;;;;;;14.63;8.55;;;;;;;;;;4927943;29;20612;-87
2022/08/23 08:05:41;;;;;;;13.88;8.05;;;;;;;;;;4881473;29;20407;-86
2022/08/23 08:08:06;;;;;;;10.13;7.15;;;;;;;;;;4898060;29;20055;-87
2022/08/23 08:10:37;;;;;;;10.70;7.30;;;;;;;;;;4898402;29;20028;-87
2022/08/23 08:13:02;;;;;;;11.52;7.97;;;;;;;;;;4897338;29;20087;-87
2022/08/23 08:15:28;;;;;;;11.57;6.95;;;;;;;;;;4897314;29;20868;-87
2022/08/23 08:17:53;;;;;;;10.93;6.78;;;;;;;;;;4910177;29;20391;-87
2022/08/23 08:20:19;;;;;;;11.25;6.13;;;;;;;;;;4894932;29;20214;-86
2022/08/23 08:22:46;;;;;;;9.43;6.30;;;;;;;;;;4894110;29;20059;-88
2022/08/23 08:25:11;;;;;;;8.40;6.38;;;;;;;;;;4912479;29;20023;-87
2022/08/23 08:27:37;;;;;;;8.48;6.00;;;;;;;;;;4898775;29;20045;-87
2022/08/23 08:30:04;;;;;;;11.00;6.53;;;;;;;;;;4884659;29;20464;-87
2022/08/23 08:32:29;;;;;;;9.80;5.93;;;;;;;;;;4893543;29;20119;-87
2022/08/23 08:34:55;;;;;;;10.27;5.72;;;;;;;;;;4923963;29;20496;-86
2022/08/23 08:37:20;;;;;;;10.63;5.78;;;;;;;;;;4925563;29;20062;-87
2022/08/23 08:39:45;;;;;;;10.13;5.72;;;;;;;;;;4929598;29;20063;-87
2022/08/23 08:42:11;;;;;;;8.77;4.93;;;;;;;;;;4897109;29;20502;-86
2022/08/23 08:44:45;;;;;;;11.90;4.97;;;;;;;;;;4915744;29;20059;-89
2022/08/23 08:47:32;;;;;;;9.45;4.88;;;;;;;;;;4893334;29;20047;-86
2022/08/23 08:50:07;;;;;;;14.35;5.65;;;;;;;;;;4876389;29;20392;-86
2022/08/23 08:52:35;;;;;;;10.95;4.70;;;;;;;;;;4908705;29;20076;-86
2022/08/23 08:55:11;;;;;;;8.48;4.93;;;;;;;;;;4894569;29;20150;-86
2022/08/23 08:57:41;;;;;;;14.43;5.07;;;;;;;;;;4877247;29;20481;-86
2022/08/23 09:00:16;;;;;;;9.65;4.30;;;;;;;;;;4910417;29;20038;-86
2022/08/23 09:02:41;;;;;;;8.52;4.40;;;;;;;;;;4907290;29;20039;-87
2022/08/23 09:05:38;;;;;;;14.27;4.53;;;;;;;;;;4903517;29;21006;-87
2022/08/23 09:08:15;;;;;;;9.18;4.63;;;;;;;;;;4909936;29;20059;-87
2022/08/23 09:11:04;;;;;;;9.23;3.75;;;;;;;;;;4894043;29;20058;-88
2022/08/23 09:13:39;;;;;;;11.68;5.10;;;;;;;;;;4892472;29;20028;-88
2022/08/23 09:16:23;;;;;;;9.45;4.60;;;;;;;;;;4930154;29;20065;-87
2022/08/23 09:18:49;;;;;;;15.10;4.55;;;;;;;;;;4907964;29;20044;-86
2022/08/23 09:21:14;;;;;;;9.95;4.07;;;;;;;;;;4896089;29;20107;-89
2022/08/23 09:23:47;;;;;;;10.23;4.13;;;;;;;;;;4925930;29;20091;-86
2022/08/23 09:26:18;;;;;;;12.90;4.15;;;;;;;;;;4891032;29;20111;-86
2022/08/23 09:28:44;;;;;;;9.07;4.20;;;;;;;;;;4900524;29;20035;-87
2022/08/23 09:31:10;;;;;;;8.85;3.58;;;;;;;;;;4873600;29;20053;-88
2022/08/23 09:33:38;;;;;;;7.18;4.05;;;;;;;;;;4871970;29;20024;-86
2022/08/23 09:36:17;;;;;;;6.82;3.58;;;;;;;;;;4908350;29;20032;-86
2022/08/23 09:39:19;;;;;;;7.97;4.30;;;;;;;;;;4920504;29;20512;-87
2022/08/23 09:41:44;;;;;;;5.20;3.03;;;;;;;;;;4881168;29;20043;-86
2022/08/23 09:44:15;;;;;;;11.00;4.15;;;;;;;;;;4897322;29;20072;-86
2022/08/23 09:46:41;;;;;;;7.85;4.18;;;;;;;;;;4889641;29;20452;-87
2022/08/23 09:49:23;;;;;;;11.45;4.00;;;;;;;;;;4911288;29;20044;-87
2022/08/23 09:51:49;;;;;;;7.60;3.78;;;;;;;;;;4927672;29;20102;-87
2022/08/23 09:54:19;;;;;;;10.02;4.32;;;;;;;;;;4929860;29;20109;-88
2022/08/23 09:56:53;;;;;;;8.20;3.97;;;;;;;;;;4946621;29;20043;-87
2022/08/23 09:59:26;;;;;;;8.30;3.05;;;;;;;;;;4914485;29;20103;-86
2022/08/23 10:01:53;;;;;;;10.20;3.80;;;;;;;;;;4911066;29;20031;-87
2022/08/23 10:04:24;;;;;;;9.25;3.88;;;;;;;;;;4899554;29;20067;-87
2022/08/23 10:06:49;;;;;;;9.27;3.85;;;;;;;;;;4891621;29;20111;-86
2022/08/23 10:09:29;;;;;;;9.18;3.58;;;;;;;;;;4918294;29;20118;-86
2022/08/23 10:11:59;;;;;;;8.32;3.22;;;;;;;;;;4927408;29;20110;-87
2022/08/23 10:14:25;;;;;;;11.50;3.33;;;;;;;;;;4951158;29;20126;-88
2022/08/23 10:17:29;;;;;;;11.02;3.13;;;;;;;;;;4928766;29;20034;-88
2022/08/23 10:20:10;;;;;;;8.52;4.13;;;;;;;;;;4935305;29;20032;-87
2022/08/23 10:22:50;;;;;;;12.70;4.85;;;;;;;;;;4917219;29;20019;-87
2022/08/23 10:25:34;;;;;;;8.35;3.53;;;;;;;;;;4934916;29;20151;-87
2022/08/23 10:31:30;;;;;;;11.60;4.05;;;;;;;;;;4835174;29;20049;-88
2022/08/23 10:34:33;;;;;;;9.65;3.80;;;;;;;;;;4787281;29;20605;-87
2022/08/23 10:37:20;;;;;;;11.98;3.53;;;;;;;;;;4904542;29;20078;-88
2022/08/23 10:39:58;;;;;;;9.23;3.53;;;;;;;;;;4935193;29;20495;-88
2022/08/23 10:42:59;;;;;;;9.90;3.72;;;;;;;;;;4915107;29;20028;-87
2022/08/23 10:45:33;;;;;;;10.45;3.53;;;;;;;;;;4933505;29;20047;-87
2022/08/23 10:48:28;;;;;;;9.35;3.13;;;;;;;;;;4917464;29;20061;-87
2022/08/23 10:51:02;;;;;;;13.75;3.65;;;;;;;;;;4917658;29;20401;-87
2022/08/23 10:53:36;;;;;;;9.13;4.35;;;;;;;;;;4925686;29;20404;-88
2022/08/23 10:56:03;;;;;;;8.15;4.70;;;;;;;;;;4928479;29;20036;-87
2022/08/23 10:58:51;;;;;;;8.35;4.45;;;;;;;;;;4917126;29;20479;-88
2022/08/23 11:01:24;;;;;;;9.55;4.15;;;;;;;;;;4917462;29;20503;-87
2022/08/23 11:04:01;;;;;;;10.95;4.45;;;;;;;;;;4916576;29;20030;-89
2022/08/23 11:06:35;;;;;;;7.55;4.18;;;;;;;;;;4903425;29;20068;-88
2022/08/23 11:09:16;;;;;;;11.88;3.80;;;;;;;;;;4942423;29;20468;-88
2022/08/23 11:12:10;;;;;;;9.80;3.65;;;;;;;;;;4901367;29;20052;-88
2022/08/23 11:14:55;;;;;;;7.93;2.95;;;;;;;;;;4932813;29;20118;-88
2022/08/23 11:17:51;;;;;;;9.98;3.17;;;;;;;;;;4917396;29;20066;-88
2022/08/23 11:20:47;;;;;;;8.35;2.90;;;;;;;;;;4912969;29;20083;-87
2022/08/23 11:23:33;;;;;;;7.95;3.25;;;;;;;;;;4933688;29;20274;-88
2022/08/23 11:26:03;;;;;;;7.05;3.42;;;;;;;;;;4933067;29;20051;-88
2022/08/23 11:28:28;;;;;;;8.90;3.42;;;;;;;;;;4934034;29;20074;-87
2022/08/23 11:31:08;;;;;;;6.67;2.60;;;;;;;;;;4934077;29;20500;-88
2022/08/23 11:33:49;;;;;;;6.40;3.00;;;;;;;;;;4918599;29;20294;-87
2022/08/23 11:36:20;;;;;;;10.23;3.30;;;;;;;;;;4934428;29;20134;-87
2022/08/23 11:38:45;;;;;;;8.40;3.38;;;;;;;;;;4933331;29;20527;-87
2022/08/23 11:41:24;;;;;;;11.00;3.30;;;;;;;;;;4947959;29;20127;-87
2022/08/23 11:43:55;;;;;;;10.40;3.40;;;;;;;;;;4925541;29;20060;-87
2022/08/23 11:46:29;;;;;;;8.00;3.20;;;;;;;;;;4906932;29;20104;-88
2022/08/23 11:49:26;;;;;;;12.18;3.58;;;;;;;;;;4917481;29;20412;-88
2022/08/23 11:52:32;;;;;;;10.18;3.95;;;;;;;;;;4905386;29;20036;-87
2022/08/23 11:55:23;;;;;;;9.55;3.42;;;;;;;;;;4927028;29;20028;-87
2022/08/23 11:58:29;;;;;;;6.00;3.30;;;;;;;;;;4930007;29;20146;-89
2022/08/23 12:01:06;;;;;;;9.85;3.70;;;;;;;;;;4928896;29;20111;-87
2022/08/23 12:03:38;;;;;;;6.80;3.33;;;;;;;;;;4899236;29;20397;-88
2022/08/23 12:06:18;;;;;;;8.63;3.60;;;;;;;;;;4899017;29;20024;-87
2022/08/23 12:08:47;;;;;;;8.82;3.33;;;;;;;;;;4914656;29;20484;-88
2022/08/23 12:11:12;;;;;;;10.20;3.80;;;;;;;;;;4899070;29;20088;-88
2022/08/23 12:13:50;;;;;;;11.15;4.18;;;;;;;;;;4899630;29;20040;-87
2022/08/23 12:16:15;;;;;;;8.30;3.80;;;;;;;;;;4910691;29;20392;-87
2022/08/23 12:18:54;;;;;;;7.10;3.10;;;;;;;;;;4929543;29;20024;-86
2022/08/23 12:21:25;;;;;;;8.13;2.97;;;;;;;;;;4912694;29;20640;-87
2022/08/23 12:23:53;;;;;;;7.75;3.80;;;;;;;;;;4924182;29;20100;-87
2022/08/23 12:26:33;;;;;;;9.18;3.92;;;;;;;;;;4915578;29;20036;-87
2022/08/23 12:29:02;;;;;;;6.93;3.70;;;;;;;;;;4908991;29;20043;-87
2022/08/23 12:31:40;;;;;;;9.05;3.30;;;;;;;;;;4892771;29;20039;-87
2022/08/23 12:34:14;;;;;;;6.80;3.38;;;;;;;;;;4894640;29;20488;-87
2022/08/23 12:37:01;;;;;;;6.30;3.03;;;;;;;;;;4914316;29;20035;-87
2022/08/23 12:39:32;;;;;;;7.05;2.72;;;;;;;;;;4913463;29;20477;-88
2022/08/23 12:42:17;;;;;;;12.27;3.47;;;;;;;;;;4878552;29;20439;-87
2022/08/23 12:44:43;;;;;;;7.90;3.15;;;;;;;;;;4903434;29;20111;-86
2022/08/23 12:47:15;;;;;;;5.53;3.05;;;;;;;;;;4898140;29;20357;-88
2022/08/23 12:49:41;;;;;;;10.30;3.42;;;;;;;;;;4933539;29;20083;-87
2022/08/23 12:52:08;;;;;;;9.55;3.47;;;;;;;;;;4942577;28;20507;-87
2022/08/23 12:54:40;;;;;;;11.80;2.85;;;;;;;;;;4935787;29;20082;-87
2022/08/23 12:57:10;;;;;;;10.35;2.92;;;;;;;;;;4915171;29;20027;-87
2022/08/23 12:59:47;;;;;;;5.75;3.13;;;;;;;;;;4930733;29;20024;-88
2022/08/23 13:02:25;;;;;;;10.05;3.63;;;;;;;;;;4927223;29;20039;-86
2022/08/23 13:04:50;;;;;;;8.73;2.80;;;;;;;;;;4911500;29;20039;-87
2022/08/23 13:07:18;;;;;;;8.35;3.38;;;;;;;;;;4905507;29;20019;-86
2022/08/23 13:09:44;;;;;;;8.75;2.70;;;;;;;;;;4907625;29;20051;-87
2022/08/23 13:12:10;;;;;;;8.20;3.78;;;;;;;;;;4912829;29;20119;-88
2022/08/23 13:14:38;;;;;;;6.30;3.00;;;;;;;;;;4897349;29;20088;-87
2022/08/23 13:17:14;;;;;;;7.65;2.70;;;;;;;;;;4949478;28;20349;-87
2022/08/23 13:19:39;;;;;;;8.00;3.22;;;;;;;;;;4917814;29;20034;-87
2022/08/23 13:22:17;;;;;;;9.98;2.78;;;;;;;;;;4935852;29;20032;-87
2022/08/23 13:24:43;;;;;;;9.40;3.10;;;;;;;;;;4927807;28;20028;-87
2022/08/23 13:27:43;;;;;;;11.43;3.50;;;;;;;;;;4933378;29;20057;-87
2022/08/23 13:30:08;;;;;;;8.00;3.92;;;;;;;;;;4916016;29;20047;-88
2022/08/23 13:32:39;;;;;;;9.57;3.67;;;;;;;;;;4932333;29;20032;-87
2022/08/23 13:35:31;;;;;;;8.38;3.33;;;;;;;;;;4933393;29;20084;-86
2022/08/23 13:38:05;;;;;;;8.75;3.42;;;;;;;;;;4914383;29;20515;-86
2022/08/23 13:40:32;;;;;;;8.88;3.47;;;;;;;;;;4914253;29;20325;-87
2022/08/23 13:43:02;;;;;;;12.32;3.30;;;;;;;;;;4931518;29;20491;-86
2022/08/23 13:45:35;;;;;;;9.23;3.30;;;;;;;;;;4932149;29;20066;-87
2022/08/23 13:48:02;;;;;;;11.85;3.20;;;;;;;;;;4915392;29;20040;-86
2022/08/23 13:50:30;;;;;;;7.35;2.92;;;;;;;;;;4931499;29;20472;-86
2022/08/23 13:52:56;;;;;;;9.98;4.00;;;;;;;;;;4929661;29;20485;-87
2022/08/23 13:55:22;;;;;;;11.57;3.95;;;;;;;;;;4915567;29;20091;-87
2022/08/23 13:57:47;;;;;;;11.40;3.70;;;;;;;;;;4915345;29;20183;-87
2022/08/23 14:00:13;;;;;;;9.23;3.42;;;;;;;;;;4915087;29;20032;-87
2022/08/23 14:02:38;;;;;;;4.97;2.92;;;;;;;;;;4912255;29;20471;-87
2022/08/23 14:05:07;;;;;;;7.85;2.75;;;;;;;;;;4881386;29;20087;-87
2022/08/23 14:07:33;;;;;;;6.60;2.85;;;;;;;;;;4896367;29;20028;-86
2022/08/23 14:09:58;;;;;;;7.53;2.90;;;;;;;;;;4895545;29;20068;-87
2022/08/23 14:12:26;;;;;;;8.98;3.20;;;;;;;;;;4913452;29;20035;-88
2022/08/23 14:14:52;;;;;;;8.43;3.00;;;;;;;;;;4911991;29;20028;-88
2022/08/23 14:17:17;;;;;;;9.75;3.05;;;;;;;;;;4915207;29;20063;-88
2022/08/23 14:19:45;;;;;;;10.20;3.63;;;;;;;;;;4928127;29;20027;-88
2022/08/23 14:22:11;;;;;;;8.60;3.40;;;;;;;;;;4912896;29;20055;-88
2022/08/23 14:24:37;;;;;;;8.95;3.17;;;;;;;;;;4898692;29;20038;-88
2022/08/23 14:27:02;;;;;;;9.27;3.38;;;;;;;;;;4927829;29;20535;-87
2022/08/23 14:29:28;;;;;;;9.40;3.28;;;;;;;;;;4923068;29;20511;-87
2022/08/23 14:31:53;;;;;;;9.52;3.40;;;;;;;;;;4939011;28;20036;-87
2022/08/23 14:34:19;;;;;;;8.93;3.53;;;;;;;;;;4925320;29;20399;-87
2022/08/23 14:36:44;;;;;;;13.38;3.20;;;;;;;;;;4881975;29;20040;-88
2022/08/23 14:39:12;;;;;;;7.78;2.97;;;;;;;;;;4946395;29;20028;-88
2022/08/23 14:41:38;;;;;;;9.95;3.17;;;;;;;;;;4924446;28;20026;-87
2022/08/23 14:44:03;;;;;;;8.70;2.95;;;;;;;;;;4915511;29;20134;-87
2022/08/23 14:46:29;;;;;;;7.07;2.85;;;;;;;;;;4929643;29;20514;-87
2022/08/23 14:48:54;;;;;;;7.90;3.53;;;;;;;;;;4914985;28;20067;-87
2022/08/23 14:51:26;;;;;;;10.90;3.47;;;;;;;;;;4950547;29;20043;-87
2022/08/23 14:53:52;;;;;;;7.80;3.67;;;;;;;;;;4934961;29;20531;-87
2022/08/23 14:56:17;;;;;;;11.98;3.88;;;;;;;;;;4917885;29;20043;-86